Time;durP1;ratioP1;P1;durP2;ratioP2;P2;SDS_P1;SDS_P2;PMS_P1;PMS_P2;Temp;Humidity;BMP_temperature;BMP_pressure;BME280_temperature;BME280_humidity;BME280_pressure;Samples;Min_cycle;Max_cycle;Signal;HPM_P1;HPM_P2
2023/01/30 00:00:02;;;;;;;;;;;;;;;12.19;69.75;101361.06;1260156;23;599;-89
2023/01/30 00:00:53;;;;;;;;;;;;;;;12.20;69.54;101364.59;1255951;23;662;-90
2023/01/30 00:01:43;;;;;;;;;;;;;;;12.20;69.83;101361.91;1255243;23;614;-87
2023/01/30 00:02:34;;;;;;;;;;;;;;;12.18;70.45;101365.53;1261475;23;594;-88
2023/01/30 00:03:24;;;;;;;;;;;;;;;12.18;70.26;101368.22;1261622;23;642;-88
2023/01/30 00:04:15;;;;;;;;;;;;;;;12.21;69.76;101368.97;1260560;23;607;-89
2023/01/30 00:05:05;;;;;;;;;;;;;;;12.20;70.53;101367.25;1260796;23;635;-87
2023/01/30 00:05:56;;;;;;;;;;;;;;;12.20;69.63;101351.22;1260347;23;622;-87
2023/01/30 00:06:46;;;;;;;;;;;;;;;12.19;70.01;101353.03;1260732;23;673;-87
2023/01/30 00:07:36;;;;;;;;;;;;;;;12.18;70.56;101358.50;1259801;23;635;-89
2023/01/30 00:08:27;;;;;;;;;;;;;;;12.19;70.32;101345.03;1260132;23;606;-88
2023/01/30 00:09:17;;;;;;;;;;;;;;;12.21;70.38;101342.25;1260697;23;646;-89
2023/01/30 00:10:08;;;;;;;;;;;;;;;12.25;70.11;101341.13;1260650;23;606;-90
2023/01/30 00:10:58;;;;;;;;;;;;;;;12.22;70.21;101336.81;1260746;23;700;-90
2023/01/30 00:11:48;;;;;;;;;;;;;;;12.22;70.55;101327.94;1260890;23;784;-90
2023/01/30 00:12:39;;;;;;;;;;;;;;;12.22;69.65;101330.63;1260628;23;622;-89
2023/01/30 00:13:29;;;;;;;;;;;;;;;12.21;69.70;101323.56;1260480;23;669;-88
2023/01/30 00:14:20;;;;;;;;;;;;;;;12.20;70.66;101322.69;1260498;23;641;-88
2023/01/30 00:15:10;;;;;;;;;;;;;;;12.21;69.69;101323.56;1260519;23;653;-88
2023/01/30 00:16:01;;;;;;;;;;;;;;;12.23;70.75;101327.00;1260516;23;641;-84
2023/01/30 00:16:51;;;;;;;;;;;;;;;12.21;70.00;101323.56;1262221;23;761;-84
2023/01/30 00:17:42;;;;;;;;;;;;;;;12.20;70.56;101328.03;1260568;23;595;-85
2023/01/30 00:18:32;;;;;;;;;;;;;;;12.18;69.97;101313.09;1262208;23;614;-79
2023/01/30 00:19:23;;;;;;;;;;;;;;;12.17;70.83;101312.22;1260264;23;633;-79
2023/01/30 00:20:13;;;;;;;;;;;;;;;12.19;70.81;101315.63;1260411;23;651;-78
2023/01/30 00:21:04;;;;;;;;;;;;;;;12.18;70.52;101326.44;1259859;23;602;-79
2023/01/30 00:21:54;;;;;;;;;;;;;;;12.18;70.37;101323.78;1259810;23;607;-79
2023/01/30 00:22:44;;;;;;;;;;;;;;;12.20;69.92;101317.34;1259584;23;662;-79
2023/01/30 00:23:35;;;;;;;;;;;;;;;12.18;70.78;101324.63;1259748;23;589;-79
2023/01/30 00:24:25;;;;;;;;;;;;;;;12.20;70.40;101313.81;1259881;23;673;-81
2023/01/30 00:25:16;;;;;;;;;;;;;;;12.19;70.42;101315.63;1259768;23;678;-80
2023/01/30 00:26:06;;;;;;;;;;;;;;;12.19;69.82;101310.28;1261520;23;673;-80
2023/01/30 00:26:57;;;;;;;;;;;;;;;12.18;70.46;101313.09;1259611;23;1952;-80
2023/01/30 00:27:47;;;;;;;;;;;;;;;12.18;70.40;101320.13;1259822;23;649;-80
2023/01/30 00:28:38;;;;;;;;;;;;;;;12.20;70.46;101312.00;1259966;23;631;-80
2023/01/30 00:29:28;;;;;;;;;;;;;;;12.21;70.75;101318.22;1260469;23;607;-80
2023/01/30 00:30:19;;;;;;;;;;;;;;;12.18;70.60;101319.28;1261349;23;618;-80
2023/01/30 00:31:09;;;;;;;;;;;;;;;12.18;69.90;101314.78;1259906;23;661;-80
2023/01/30 00:32:00;;;;;;;;;;;;;;;12.18;69.99;101307.75;1259756;23;720;-80
2023/01/30 00:32:50;;;;;;;;;;;;;;;12.20;69.98;101308.47;1259941;23;626;-80
2023/01/30 00:33:41;;;;;;;;;;;;;;;12.16;70.77;101306.03;1261485;23;630;-82
2023/01/30 00:34:31;;;;;;;;;;;;;;;12.18;70.89;101305.06;1259878;23;705;-82
2023/01/30 00:35:27;;;;;;;;;;;;;;;12.18;69.86;101292.56;1255183;23;673;-82
2023/01/30 00:36:17;;;;;;;;;;;;;;;12.16;70.05;101290.00;1254748;23;1199;-80
2023/01/30 00:37:08;;;;;;;;;;;;;;;12.18;70.96;101291.72;1255109;23;789;-82
2023/01/30 00:37:58;;;;;;;;;;;;;;;12.18;70.24;101288.06;1255910;23;580;-80
2023/01/30 00:38:48;;;;;;;;;;;;;;;12.17;70.36;101288.19;1261374;23;578;-80
2023/01/30 00:39:39;;;;;;;;;;;;;;;12.18;70.88;101282.72;1259783;23;654;-81
2023/01/30 00:40:29;;;;;;;;;;;;;;;12.18;70.73;101277.38;1261310;23;638;-81
2023/01/30 00:41:20;;;;;;;;;;;;;;;12.18;70.33;101292.56;1259645;23;607;-80
2023/01/30 00:47:07;;;;;;;;;;;;;;;12.20;70.80;101292.44;1261018;23;661;-81
2023/01/30 00:47:57;;;;;;;;;;;;;;;12.18;70.29;101280.03;1261323;23;590;-81
2023/01/30 00:48:48;;;;;;;;;;;;;;;12.18;70.60;101289.91;1259639;23;603;-81
2023/01/30 00:49:38;;;;;;;;;;;;;;;12.18;70.25;101290.72;1259881;23;669;-82
2023/01/30 00:50:41;;;;;;;;;;;;;;;12.18;70.66;101297.91;1259671;23;595;-81
2023/01/30 00:51:31;;;;;;;;;;;;;;;12.18;70.63;101288.06;1261376;23;673;-81
2023/01/30 00:52:22;;;;;;;;;;;;;;;12.20;70.99;101285.28;1255200;23;618;-81
2023/01/30 00:53:12;;;;;;;;;;;;;;;12.18;70.41;101288.06;1254956;23;685;-81
2023/01/30 00:54:03;;;;;;;;;;;;;;;12.18;70.84;101278.34;1261204;23;610;-81
2023/01/30 00:54:53;;;;;;;;;;;;;;;12.16;69.99;101281.97;1259697;23;727;-84
2023/01/30 00:55:44;;;;;;;;;;;;;;;12.16;70.23;101273.97;1259643;23;607;-82
2023/01/30 00:56:34;;;;;;;;;;;;;;;12.18;70.80;101278.34;1261550;23;544;-81
2023/01/30 00:57:25;;;;;;;;;;;;;;;12.18;70.86;101275.69;1259636;23;642;-82
2023/01/30 00:58:16;;;;;;;;;;;;;;;12.18;70.92;101266.69;1261494;23;638;-83
2023/01/30 00:59:06;;;;;;;;;;;;;;;12.18;70.40;101275.69;1261385;23;605;-83
2023/01/30 00:59:56;;;;;;;;;;;;;;;12.18;70.17;101272.03;1261347;23;634;-81
2023/01/30 01:00:47;;;;;;;;;;;;;;;12.18;70.17;101264.00;1255324;23;664;-83
2023/01/30 01:01:37;;;;;;;;;;;;;;;12.16;70.90;101257.94;1254580;23;607;-82
2023/01/30 01:02:28;;;;;;;;;;;;;;;12.15;70.45;101256.22;1260416;23;610;-82
2023/01/30 01:03:18;;;;;;;;;;;;;;;12.18;70.66;101249.81;1259753;23;701;-82
2023/01/30 01:04:09;;;;;;;;;;;;;;;12.14;70.37;101246.50;1261469;23;650;-81
2023/01/30 01:04:59;;;;;;;;;;;;;;;12.16;69.77;101247.25;1260722;23;622;-82
2023/01/30 01:05:50;;;;;;;;;;;;;;;12.19;70.06;101248.84;1259709;23;614;-84
2023/01/30 01:06:40;;;;;;;;;;;;;;;12.18;69.64;101248.97;1261743;23;716;-84
2023/01/30 01:07:31;;;;;;;;;;;;;;;12.16;70.55;101255.25;1259660;23;618;-84
2023/01/30 01:08:21;;;;;;;;;;;;;;;12.15;70.77;101240.19;1259804;23;673;-82
2023/01/30 01:09:11;;;;;;;;;;;;;;;12.18;69.69;101248.97;1260385;23;685;-82
2023/01/30 01:10:02;;;;;;;;;;;;;;;12.15;69.70;101245.53;1259657;23;633;-82
2023/01/30 01:10:52;;;;;;;;;;;;;;;12.18;70.56;101249.81;1259888;23;619;-80
2023/01/30 01:11:43;;;;;;;;;;;;;;;12.18;69.66;101235.59;1259796;23;611;-82
2023/01/30 01:12:33;;;;;;;;;;;;;;;12.18;70.41;101232.94;1259938;23;681;-83
2023/01/30 01:13:24;;;;;;;;;;;;;;;12.18;70.20;101223.09;1259707;23;603;-84
2023/01/30 01:14:14;;;;;;;;;;;;;;;12.18;69.51;101230.25;1255274;23;673;-85
2023/01/30 01:15:04;;;;;;;;;;;;;;;12.15;70.00;101232.19;1255221;23;533;-84
2023/01/30 01:15:55;;;;;;;;;;;;;;;12.16;69.67;101225.03;1260327;23;619;-83
2023/01/30 01:16:45;;;;;;;;;;;;;;;12.14;70.61;101222.44;1259676;23;631;-84
2023/01/30 01:17:36;;;;;;;;;;;;;;;12.18;70.37;101219.56;1259697;23;607;-84
2023/01/30 01:18:26;;;;;;;;;;;;;;;12.20;70.42;101220.31;1255399;23;626;-84
2023/01/30 01:19:17;;;;;;;;;;;;;;;12.18;70.60;101224.91;1255248;23;728;-83
2023/01/30 01:20:07;;;;;;;;;;;;;;;12.16;69.61;101239.25;1260558;23;657;-84
2023/01/30 01:20:57;;;;;;;;;;;;;;;12.15;70.56;101224.16;1260066;23;654;-84
2023/01/30 01:21:48;;;;;;;;;;;;;;;12.18;70.04;101225.78;1259598;23;617;-83
2023/01/30 01:22:38;;;;;;;;;;;;;;;12.16;69.65;101223.22;1259752;23;631;-82
2023/01/30 01:23:29;;;;;;;;;;;;;;;12.17;70.03;101221.41;1261357;23;630;-82
2023/01/30 01:24:19;;;;;;;;;;;;;;;12.17;70.22;101226.72;1259662;23;693;-82
2023/01/30 01:25:10;;;;;;;;;;;;;;;12.15;70.29;101213.47;1259500;23;628;-82
2023/01/30 01:26:00;;;;;;;;;;;;;;;12.18;69.91;101216.91;1259711;23;603;-84
2023/01/30 01:26:50;;;;;;;;;;;;;;;12.16;70.22;101217.00;1260099;23;606;-84
2023/01/30 01:27:41;;;;;;;;;;;;;;;12.16;70.39;101223.22;1259969;23;630;-84
2023/01/30 01:28:31;;;;;;;;;;;;;;;12.15;70.24;101226.84;1259915;23;661;-84
2023/01/30 01:29:22;;;;;;;;;;;;;;;12.14;69.71;101225.13;1259526;23;615;-83
2023/01/30 01:30:12;;;;;;;;;;;;;;;12.13;70.36;101219.88;1259088;23;688;-85
2023/01/30 01:31:03;;;;;;;;;;;;;;;12.12;70.14;101228.84;1259477;23;635;-80
2023/01/30 01:31:53;;;;;;;;;;;;;;;12.12;70.49;101221.69;1261288;23;618;-80
2023/01/30 01:32:43;;;;;;;;;;;;;;;12.11;69.77;101227.97;1261357;23;568;-79
2023/01/30 01:33:34;;;;;;;;;;;;;;;12.12;70.62;101221.69;1259579;23;635;-79
2023/01/30 01:34:24;;;;;;;;;;;;;;;12.13;70.73;101220.72;1261197;23;668;-80
2023/01/30 01:35:15;;;;;;;;;;;;;;;12.13;69.75;101219.88;1254944;23;615;-80
2023/01/30 01:36:05;;;;;;;;;;;;;;;12.13;69.86;101218.06;1255077;23;678;-83
2023/01/30 01:36:56;;;;;;;;;;;;;;;12.16;70.24;101217.88;1260439;23;626;-82
2023/01/30 01:37:46;;;;;;;;;;;;;;;12.18;70.06;101217.75;1259758;23;646;-84
2023/01/30 01:38:37;;;;;;;;;;;;;;;12.18;69.95;101227.59;1260034;23;635;-84
2023/01/30 01:41:00;;;;;;;;;;;;;;;12.18;70.13;101222.25;1261669;23;645;-84
2023/01/30 01:41:47;;;;;;;;;;;;;;;12.16;70.60;101227.69;1261340;23;609;-83
2023/01/30 01:42:38;;;;;;;;;;;;;;;12.16;70.33;101230.38;1260619;23;653;-84
2023/01/30 01:43:28;;;;;;;;;;;;;;;12.15;70.36;101236.66;1259934;23;735;-83
2023/01/30 01:44:18;;;;;;;;;;;;;;;12.16;69.78;101227.69;1259798;23;654;-82
2023/01/30 01:45:12;;;;;;;;;;;;;;;12.18;69.73;101222.25;1259130;23;610;-82
2023/01/30 01:46:03;;;;;;;;;;;;;;;12.15;69.72;101224.16;1261218;23;645;-82
2023/01/30 01:46:53;;;;;;;;;;;;;;;12.14;70.62;101227.78;1261428;23;1905;-83
2023/01/30 01:47:43;;;;;;;;;;;;;;;12.13;69.78;101226.06;1261569;23;665;-83
2023/01/30 01:48:34;;;;;;;;;;;;;;;12.15;70.67;101224.16;1259659;23;631;-83
2023/01/30 01:49:24;;;;;;;;;;;;;;;12.16;70.22;101217.88;1261383;23;621;-81
2023/01/30 01:50:15;;;;;;;;;;;;;;;12.13;70.33;101230.56;1259479;23;600;-80
2023/01/30 01:51:05;;;;;;;;;;;;;;;12.16;69.77;101225.03;1261299;23;807;-80
2023/01/30 01:51:55;;;;;;;;;;;;;;;12.13;69.56;101219.88;1259911;23;595;-80
2023/01/30 01:52:46;;;;;;;;;;;;;;;12.14;69.92;101217.09;1259544;23;623;-80
2023/01/30 01:53:36;;;;;;;;;;;;;;;12.14;70.07;101211.75;1261348;23;665;-82
2023/01/30 01:54:27;;;;;;;;;;;;;;;12.12;70.40;101208.31;1259510;23;662;-78
2023/01/30 01:55:17;;;;;;;;;;;;;;;12.12;69.85;101210.13;1259623;23;669;-79
2023/01/30 01:56:08;;;;;;;;;;;;;;;12.13;70.33;101210.03;1259846;23;595;-83
2023/01/30 01:56:58;;;;;;;;;;;;;;;12.14;70.18;101217.09;1260116;23;611;-83
2023/01/30 01:57:48;;;;;;;;;;;;;;;12.13;69.78;101214.53;1259699;23;634;-80
2023/01/30 01:58:39;;;;;;;;;;;;;;;12.12;70.65;101213.66;1259592;23;685;-81
2023/01/30 01:59:29;;;;;;;;;;;;;;;12.14;70.59;101217.09;1259267;23;650;-84
2023/01/30 02:00:20;;;;;;;;;;;;;;;12.14;70.63;101221.59;1255055;23;624;-82
2023/01/30 02:01:10;;;;;;;;;;;;;;;12.13;70.45;101217.19;1254979;23;685;-81
2023/01/30 02:02:01;;;;;;;;;;;;;;;12.15;70.50;101224.16;1260551;23;542;-83
2023/01/30 02:02:51;;;;;;;;;;;;;;;12.13;70.65;101220.72;1259850;23;665;-82
2023/01/30 02:03:42;;;;;;;;;;;;;;;12.15;70.50;101217.97;1259394;23;695;-81
2023/01/30 02:05:41;;;;;;;;;;;;;;;12.13;70.26;101209.19;1261445;23;617;-84
2023/01/30 02:06:31;;;;;;;;;;;;;;;12.13;70.56;101215.38;1259742;23;716;-81
2023/01/30 02:07:22;;;;;;;;;;;;;;;12.16;70.53;101214.34;1259467;23;1894;-81
2023/01/30 02:08:12;;;;;;;;;;;;;;;12.15;69.96;101225.97;1259774;23;717;-81
2023/01/30 02:09:05;;;;;;;;;;;;;;;12.15;69.71;101229.50;1259655;23;627;-77
2023/01/30 02:09:56;;;;;;;;;;;;;;;12.15;70.00;101216.16;1259426;23;603;-77
2023/01/30 02:10:46;;;;;;;;;;;;;;;12.13;69.64;101222.53;1254917;23;642;-77
2023/01/30 02:11:37;;;;;;;;;;;;;;;12.13;69.95;101218.06;1255067;23;622;-78
2023/01/30 02:12:27;;;;;;;;;;;;;;;12.15;70.52;101212.63;1260468;23;614;-78
2023/01/30 02:13:18;;;;;;;;;;;;;;;12.12;69.88;101215.47;1260292;23;630;-78
2023/01/30 02:14:08;;;;;;;;;;;;;;;12.12;69.82;101220.81;1259004;23;650;-78
2023/01/30 02:14:58;;;;;;;;;;;;;;;12.13;70.02;101214.53;1261309;23;688;-78
2023/01/30 02:15:49;;;;;;;;;;;;;;;12.12;70.16;101216.34;1259464;23;638;-77
2023/01/30 02:16:39;;;;;;;;;;;;;;;12.13;70.53;101211.84;1259656;23;673;-79
2023/01/30 02:17:30;;;;;;;;;;;;;;;12.14;70.22;101221.59;1261202;23;606;-79
2023/01/30 02:18:20;;;;;;;;;;;;;;;12.13;70.21;101212.72;1259695;23;724;-78
2023/01/30 02:19:11;;;;;;;;;;;;;;;12.13;69.87;101220.72;1259414;23;654;-79
2023/01/30 02:20:01;;;;;;;;;;;;;;;12.13;69.79;101220.72;1259680;23;642;-77
2023/01/30 02:20:52;;;;;;;;;;;;;;;12.11;70.03;101213.78;1259518;23;642;-76
2023/01/30 02:21:42;;;;;;;;;;;;;;;12.12;70.08;101219.00;1259513;23;635;-75
2023/01/30 02:22:33;;;;;;;;;;;;;;;12.13;69.90;101219.88;1259747;23;630;-75
2023/01/30 02:23:23;;;;;;;;;;;;;;;12.11;70.21;101219.97;1259512;23;577;-76
2023/01/30 02:24:14;;;;;;;;;;;;;;;12.12;70.31;101208.31;1259909;23;619;-75
2023/01/30 02:25:05;;;;;;;;;;;;;;;12.12;69.87;101211.00;1254914;23;645;-76
2023/01/30 02:25:55;;;;;;;;;;;;;;;12.14;70.10;101216.25;1255112;23;650;-77
2023/01/30 02:26:46;;;;;;;;;;;;;;;12.13;70.20;101211.84;1261083;23;552;-77
2023/01/30 02:27:36;;;;;;;;;;;;;;;12.14;69.83;101211.75;1259537;23;689;-77
2023/01/30 02:28:27;;;;;;;;;;;;;;;12.12;69.86;101213.66;1259677;23;692;-76
2023/01/30 02:29:17;;;;;;;;;;;;;;;12.12;70.01;101204.81;1261110;23;657;-76
2023/01/30 02:30:08;;;;;;;;;;;;;;;12.10;69.99;101209.38;1259821;23;661;-76
2023/01/30 02:30:58;;;;;;;;;;;;;;;12.11;70.75;101201.28;1259308;23;633;-76
2023/01/30 02:31:49;;;;;;;;;;;;;;;12.12;70.50;101208.31;1255076;23;672;-77
2023/01/30 02:32:39;;;;;;;;;;;;;;;12.13;70.18;101203.84;1255291;23;630;-77
2023/01/30 02:33:29;;;;;;;;;;;;;;;12.14;70.15;101201.06;1260820;23;598;-76
2023/01/30 02:34:20;;;;;;;;;;;;;;;12.11;69.72;101206.63;1259793;23;634;-75
2023/01/30 02:35:10;;;;;;;;;;;;;;;12.13;69.97;101196.69;1260035;23;1072;-76
2023/01/30 02:36:01;;;;;;;;;;;;;;;12.13;69.80;101195.81;1259710;23;634;-75
2023/01/30 02:36:51;;;;;;;;;;;;;;;12.11;69.88;101192.41;1259928;23;622;-75
2023/01/30 02:37:41;;;;;;;;;;;;;;;12.09;70.58;101184.47;1260121;23;618;-76
2023/01/30 02:38:32;;;;;;;;;;;;;;;12.09;70.14;101187.16;1259926;23;658;-77
2023/01/30 02:39:22;;;;;;;;;;;;;;;12.11;70.68;101185.25;1259983;23;661;-76
2023/01/30 02:40:13;;;;;;;;;;;;;;;12.10;70.60;101191.53;1260642;23;510;-77
2023/01/30 02:41:03;;;;;;;;;;;;;;;12.08;69.91;101195.25;1259886;23;623;-77
2023/01/30 02:41:54;;;;;;;;;;;;;;;12.07;70.39;101194.41;1260293;23;661;-76
2023/01/30 02:42:44;;;;;;;;;;;;;;;12.07;70.14;101205.09;1259409;23;658;-77
2023/01/30 02:43:34;;;;;;;;;;;;;;;12.07;70.17;101199.75;1259996;23;686;-77
2023/01/30 02:44:25;;;;;;;;;;;;;;;12.09;70.25;101199.66;1259852;23;642;-77
2023/01/30 02:45:15;;;;;;;;;;;;;;;12.08;69.99;101198.78;1259972;23;666;-76
2023/01/30 02:46:06;;;;;;;;;;;;;;;12.08;70.31;101188.09;1255340;23;614;-76
2023/01/30 02:46:56;;;;;;;;;;;;;;;12.10;70.44;101199.56;1255250;23;1905;-76
2023/01/30 02:47:47;;;;;;;;;;;;;;;12.07;69.71;101189.06;1260736;23;646;-77
2023/01/30 02:48:37;;;;;;;;;;;;;;;12.09;70.06;101194.31;1260025;23;618;-77
2023/01/30 02:49:28;;;;;;;;;;;;;;;12.07;70.22;101197.06;1260478;23;665;-77
2023/01/30 02:50:18;;;;;;;;;;;;;;;12.08;70.45;101201.47;1261635;23;686;-78
2023/01/30 02:51:08;;;;;;;;;;;;;;;12.09;69.91;101203.19;1255270;23;689;-81
2023/01/30 02:51:59;;;;;;;;;;;;;;;12.08;70.60;101200.59;1255323;23;646;-81
2023/01/30 02:52:49;;;;;;;;;;;;;;;12.09;70.19;101196.97;1261247;23;630;-80
2023/01/30 02:53:40;;;;;;;;;;;;;;;12.08;70.25;101198.78;1260140;23;623;-79
2023/01/30 02:54:30;;;;;;;;;;;;;;;12.09;70.65;101197.84;1255314;23;657;-80
2023/01/30 02:55:20;;;;;;;;;;;;;;;12.11;69.72;101206.63;1255325;23;674;-80
2023/01/30 02:56:11;;;;;;;;;;;;;;;12.10;70.66;101199.56;1261383;23;634;-80
2023/01/30 02:57:01;;;;;;;;;;;;;;;12.10;70.02;101199.56;1260045;23;713;-82
2023/01/30 02:57:52;;;;;;;;;;;;;;;12.09;69.97;101195.16;1259778;23;697;-82
2023/01/30 02:58:42;;;;;;;;;;;;;;;12.08;70.52;101195.25;1259967;23;647;-84
2023/01/30 02:59:33;;;;;;;;;;;;;;;12.10;70.77;101188.88;1260376;23;630;-81
2023/01/30 03:00:23;;;;;;;;;;;;;;;12.11;70.21;101190.59;1259863;23;642;-80
2023/01/30 03:01:13;;;;;;;;;;;;;;;12.10;69.89;101182.66;1260329;23;654;-82
2023/01/30 03:02:04;;;;;;;;;;;;;;;12.08;70.15;101190.78;1260154;23;646;-88
2023/01/30 03:03:05;;;;;;;;;;;;;;;12.10;70.04;101183.53;1262327;23;709;-89
2023/01/30 03:03:56;;;;;;;;;;;;;;;12.09;70.74;101181.81;1262311;23;571;-90
2023/01/30 03:04:46;;;;;;;;;;;;;;;12.09;69.89;101176.47;1262332;23;618;-91
2023/01/30 03:05:37;;;;;;;;;;;;;;;12.12;69.74;101191.44;1260800;23;683;-88
2023/01/30 03:06:27;;;;;;;;;;;;;;;12.11;69.88;101179.91;1255702;23;625;-87
2023/01/30 03:07:17;;;;;;;;;;;;;;;12.10;70.22;101183.53;1255601;23;1854;-85
2023/01/30 03:08:08;;;;;;;;;;;;;;;12.13;70.13;101182.47;1261774;23;657;-89
2023/01/30 03:08:58;;;;;;;;;;;;;;;12.12;70.11;101170.94;1260693;23;539;-89
2023/01/30 03:09:49;;;;;;;;;;;;;;;12.12;69.94;101176.28;1261144;23;677;-90
2023/01/30 03:10:39;;;;;;;;;;;;;;;12.12;70.44;101183.44;1262566;23;594;-91
2023/01/30 03:11:30;;;;;;;;;;;;;;;12.12;70.48;101186.97;1256269;23;803;-92
2023/01/30 03:12:20;;;;;;;;;;;;;;;12.10;70.31;101180.84;1255624;23;633;-78
2023/01/30 03:13:10;;;;;;;;;;;;;;;12.08;70.06;101172.06;1260802;23;622;-79
2023/01/30 03:14:01;;;;;;;;;;;;;;;12.09;69.74;101175.59;1261673;23;697;-78
2023/01/30 03:14:51;;;;;;;;;;;;;;;12.09;69.90;101173.78;1259944;23;642;-78
2023/01/30 03:15:42;;;;;;;;;;;;;;;12.10;70.19;101175.50;1260640;23;657;-78
2023/01/30 03:16:32;;;;;;;;;;;;;;;12.09;70.25;101173.78;1259991;23;618;-78
2023/01/30 03:17:23;;;;;;;;;;;;;;;12.10;70.37;101177.31;1260004;23;638;-78
2023/01/30 03:18:13;;;;;;;;;;;;;;;12.07;70.77;101166.84;1260974;23;686;-79
2023/01/30 03:19:05;;;;;;;;;;;;;;;12.08;70.90;101173.91;1259857;23;650;-78
2023/01/30 03:19:56;;;;;;;;;;;;;;;12.12;70.33;101170.94;1261796;23;669;-78
2023/01/30 03:20:46;;;;;;;;;;;;;;;12.10;69.97;101167.50;1260199;23;619;-87
2023/01/30 03:21:36;;;;;;;;;;;;;;;12.08;70.48;101169.41;1260116;23;697;-84
2023/01/30 03:22:27;;;;;;;;;;;;;;;12.09;70.54;101165.78;1260487;23;650;-88
2023/01/30 03:23:17;;;;;;;;;;;;;;;12.08;70.64;101158.72;1261932;23;661;-83
2023/01/30 03:24:08;;;;;;;;;;;;;;;12.10;69.98;101155.94;1260153;23;618;-81
2023/01/30 03:24:58;;;;;;;;;;;;;;;12.09;69.99;101170.25;1259977;23;658;-80
2023/01/30 03:25:48;;;;;;;;;;;;;;;12.08;70.99;101172.06;1260169;23;698;-78
2023/01/30 03:26:39;;;;;;;;;;;;;;;12.08;70.79;101173.91;1259448;23;541;-80
2023/01/30 03:27:29;;;;;;;;;;;;;;;12.08;70.83;101169.41;1259986;23;678;-80
2023/01/30 03:28:20;;;;;;;;;;;;;;;12.08;70.31;101166.75;1261587;23;649;-80
2023/01/30 03:29:11;;;;;;;;;;;;;;;12.09;70.07;101171.13;1261610;23;622;-81
2023/01/30 03:30:01;;;;;;;;;;;;;;;12.10;70.34;101170.16;1260094;23;996;-81
2023/01/30 03:30:51;;;;;;;;;;;;;;;12.11;70.04;101169.22;1260260;23;935;-81
2023/01/30 03:31:42;;;;;;;;;;;;;;;12.09;70.07;101173.78;1261742;23;606;-81
2023/01/30 03:32:32;;;;;;;;;;;;;;;12.06;70.58;101168.66;1261761;23;606;-78
2023/01/30 03:33:23;;;;;;;;;;;;;;;12.07;70.75;101167.69;1260164;23;626;-79
2023/01/30 03:34:13;;;;;;;;;;;;;;;12.08;70.20;101158.72;1259751;23;635;-79
2023/01/30 03:35:03;;;;;;;;;;;;;;;12.07;70.28;101165.03;1260246;23;666;-78
2023/01/30 03:35:54;;;;;;;;;;;;;;;12.06;70.03;101165.13;1261554;23;617;-78
2023/01/30 03:36:44;;;;;;;;;;;;;;;12.08;70.82;101169.41;1261583;23;1118;-77
2023/01/30 03:37:35;;;;;;;;;;;;;;;12.09;71.00;101165.78;1259748;23;635;-77
2023/01/30 03:38:25;;;;;;;;;;;;;;;12.08;70.58;101164.06;1261567;23;630;-78
2023/01/30 03:39:16;;;;;;;;;;;;;;;12.08;70.37;101181.91;1261679;23;677;-77
2023/01/30 03:40:06;;;;;;;;;;;;;;;12.09;70.69;101172.94;1255240;23;610;-78
2023/01/30 03:40:57;;;;;;;;;;;;;;;12.10;70.72;101172.84;1254784;23;623;-79
2023/01/30 03:41:47;;;;;;;;;;;;;;;12.10;70.14;101180.84;1261010;23;658;-86
2023/01/30 03:42:37;;;;;;;;;;;;;;;12.08;70.91;101171.22;1260144;23;669;-87
2023/01/30 03:43:28;;;;;;;;;;;;;;;12.12;70.05;101168.25;1259900;23;760;-88
2023/01/30 03:44:18;;;;;;;;;;;;;;;12.11;69.88;101169.22;1260597;23;607;-89
2023/01/30 03:45:09;;;;;;;;;;;;;;;12.12;70.41;101164.72;1256047;23;661;-90
2023/01/30 03:45:59;;;;;;;;;;;;;;;12.12;69.81;101164.72;1256254;23;598;-87
2023/01/30 03:46:50;;;;;;;;;;;;;;;12.08;70.14;101161.41;1260831;23;614;-83
2023/01/30 03:47:40;;;;;;;;;;;;;;;12.09;70.88;101154.25;1260500;23;681;-87
2023/01/30 03:48:30;;;;;;;;;;;;;;;12.05;70.03;101153.56;1260330;23;717;-86
2023/01/30 03:49:21;;;;;;;;;;;;;;;12.06;70.92;101160.63;1260280;23;607;-85
2023/01/30 03:50:11;;;;;;;;;;;;;;;12.05;70.32;101158.91;1255545;23;685;-84
2023/01/30 03:51:02;;;;;;;;;;;;;;;12.06;70.65;101167.78;1255469;23;700;-84
2023/01/30 03:51:52;;;;;;;;;;;;;;;12.07;70.61;101164.16;1261049;23;650;-85
2023/01/30 03:52:42;;;;;;;;;;;;;;;12.07;69.91;101167.69;1262229;23;673;-86
2023/01/30 03:53:33;;;;;;;;;;;;;;;12.06;70.87;101155.28;1260283;23;610;-87
2023/01/30 03:54:23;;;;;;;;;;;;;;;12.05;70.82;101164.25;1259894;23;661;-86
2023/01/30 03:55:14;;;;;;;;;;;;;;;12.08;70.42;101165.88;1259859;23;646;-89
2023/01/30 03:56:04;;;;;;;;;;;;;;;12.07;69.99;101159.69;1260556;23;658;-85
2023/01/30 03:56:55;;;;;;;;;;;;;;;12.10;69.95;101161.28;1262145;23;629;-85
2023/01/30 03:57:45;;;;;;;;;;;;;;;12.09;70.30;101156.91;1259937;23;670;-83
2023/01/30 03:58:35;;;;;;;;;;;;;;;12.07;69.79;101156.16;1260489;23;649;-86
2023/01/30 03:59:26;;;;;;;;;;;;;;;12.07;69.73;101158.81;1260162;23;630;-86
2023/01/30 04:00:16;;;;;;;;;;;;;;;12.06;70.63;101154.44;1260044;23;611;-85
2023/01/30 04:01:07;;;;;;;;;;;;;;;12.05;69.77;101158.91;1260433;23;595;-90
2023/01/30 04:01:57;;;;;;;;;;;;;;;12.06;70.26;101165.97;1260161;23;614;-88
2023/01/30 04:02:48;;;;;;;;;;;;;;;12.08;69.74;101158.72;1260702;23;634;-89
2023/01/30 04:03:38;;;;;;;;;;;;;;;12.08;70.68;101174.75;1260375;23;681;-86
2023/01/30 04:04:29;;;;;;;;;;;;;;;12.09;69.78;101168.44;1261989;23;661;-85
2023/01/30 04:05:19;;;;;;;;;;;;;;;12.10;69.97;101166.63;1260554;23;642;-85
2023/01/30 04:06:09;;;;;;;;;;;;;;;12.07;69.62;101167.69;1261840;23;662;-86
2023/01/30 04:07:00;;;;;;;;;;;;;;;12.04;69.91;101162.56;1259936;23;1889;-82
2023/01/30 04:07:50;;;;;;;;;;;;;;;12.03;70.64;101163.50;1259978;23;642;-82
2023/01/30 04:08:41;;;;;;;;;;;;;;;12.03;70.63;101162.66;1260402;23;681;-82
2023/01/30 04:09:31;;;;;;;;;;;;;;;12.03;70.43;101162.66;1260249;23;614;-83
2023/01/30 04:10:21;;;;;;;;;;;;;;;12.02;69.99;101168.94;1260383;23;694;-84
2023/01/30 04:11:12;;;;;;;;;;;;;;;12.02;70.74;101169.81;1261722;23;614;-84
2023/01/30 04:12:02;;;;;;;;;;;;;;;12.03;69.82;101163.50;1260204;23;654;-84
2023/01/30 04:12:53;;;;;;;;;;;;;;;12.05;70.23;101176.75;1260543;23;665;-84
2023/01/30 04:13:43;;;;;;;;;;;;;;;12.02;69.76;101169.81;1260003;23;611;-85
2023/01/30 04:14:34;;;;;;;;;;;;;;;12.03;70.22;101166.16;1255638;23;657;-84
2023/01/30 04:15:24;;;;;;;;;;;;;;;12.04;70.66;101162.56;1255442;23;661;-85
2023/01/30 04:16:15;;;;;;;;;;;;;;;12.06;69.73;101165.97;1261308;23;618;-85
2023/01/30 04:17:05;;;;;;;;;;;;;;;12.07;69.99;101172.19;1262091;23;664;-84
2023/01/30 04:17:56;;;;;;;;;;;;;;;12.08;69.74;101179.22;1260129;23;666;-84
2023/01/30 04:18:46;;;;;;;;;;;;;;;12.07;70.10;101177.53;1260056;23;615;-85
2023/01/30 04:19:37;;;;;;;;;;;;;;;12.07;70.24;101183.72;1260287;23;661;-86
2023/01/30 04:20:27;;;;;;;;;;;;;;;12.08;70.53;101185.44;1260108;23;614;-81
2023/01/30 04:21:18;;;;;;;;;;;;;;;12.07;70.06;101178.38;1260451;23;638;-82
2023/01/30 04:22:08;;;;;;;;;;;;;;;12.06;69.58;101179.34;1260241;23;673;-81
2023/01/30 04:22:58;;;;;;;;;;;;;;;12.06;69.54;101182.00;1262008;23;629;-81
2023/01/30 04:23:49;;;;;;;;;;;;;;;12.05;70.03;101177.63;1260344;23;786;-81
2023/01/30 04:24:39;;;;;;;;;;;;;;;12.05;70.51;101174.94;1259237;23;630;-81
2023/01/30 04:25:30;;;;;;;;;;;;;;;12.06;70.18;101182.00;1260671;23;653;-83
2023/01/30 04:26:20;;;;;;;;;;;;;;;12.06;69.96;101176.66;1255652;23;621;-82
2023/01/30 04:27:11;;;;;;;;;;;;;;;12.06;70.54;101167.78;1254985;23;1936;-81
2023/01/30 04:28:01;;;;;;;;;;;;;;;12.05;69.52;101180.28;1260669;23;624;-82
2023/01/30 04:28:52;;;;;;;;;;;;;;;12.05;70.41;101171.41;1260056;23;629;-84
2023/01/30 04:29:42;;;;;;;;;;;;;;;12.07;69.88;101177.53;1259998;23;615;-84
2023/01/30 04:30:33;;;;;;;;;;;;;;;12.08;69.60;101174.75;1260996;23;630;-82
2023/01/30 04:31:23;;;;;;;;;;;;;;;12.07;70.54;101186.38;1259798;23;619;-81
2023/01/30 04:32:13;;;;;;;;;;;;;;;12.05;69.50;101182.97;1259873;23;677;-82
2023/01/30 04:33:04;;;;;;;;;;;;;;;12.05;70.43;101174.94;1261539;23;661;-80
2023/01/30 04:33:54;;;;;;;;;;;;;;;12.07;70.47;101177.53;1259828;23;599;-81